sensor_id;sensor_type;location;lat;lon;timestamp;pressure;altitude;pressure_sealevel;temperature;humidity
79136;BME280;68533;51.090;17.216;2023-07-20T00:01:59;99502.41;;;15.67;89.23
79136;BME280;68533;51.090;17.216;2023-07-20T00:04:25;99515.69;;;15.61;89.51
79136;BME280;68533;51.090;17.216;2023-07-20T00:06:51;99517.97;;;15.59;89.40
79136;BME280;68533;51.090;17.216;2023-07-20T00:09:17;99511.53;;;15.67;88.93
79136;BME280;68533;51.090;17.216;2023-07-20T00:11:49;99512.94;;;15.52;90.09
79136;BME280;68533;51.090;17.216;2023-07-20T00:14:19;99518.34;;;15.49;91.17
79136;BME280;68533;51.090;17.216;2023-07-20T00:16:45;99523.50;;;15.59;89.96
79136;BME280;68533;51.090;17.216;2023-07-20T00:19:25;99529.59;;;15.73;89.93
79136;BME280;68533;51.090;17.216;2023-07-20T00:21:52;99541.69;;;15.69;90.38
79136;BME280;68533;51.090;17.216;2023-07-20T00:24:19;99547.09;;;15.65;90.15
79136;BME280;68533;51.090;17.216;2023-07-20T00:26:45;99552.97;;;15.64;90.64
79136;BME280;68533;51.090;17.216;2023-07-20T00:29:11;99569.47;;;15.60;90.75
79136;BME280;68533;51.090;17.216;2023-07-20T00:31:37;99577.91;;;15.64;90.99
79136;BME280;68533;51.090;17.216;2023-07-20T00:34:04;99596.59;;;15.46;91.82
79136;BME280;68533;51.090;17.216;2023-07-20T00:36:31;99581.19;;;15.36;92.81
79136;BME280;68533;51.090;17.216;2023-07-20T00:38:57;99575.38;;;15.50;91.61
79136;BME280;68533;51.090;17.216;2023-07-20T00:41:23;99574.38;;;15.34;93.40
79136;BME280;68533;51.090;17.216;2023-07-20T00:43:49;99569.97;;;15.33;92.24
79136;BME280;68533;51.090;17.216;2023-07-20T00:46:16;99572.31;;;15.22;93.32
79136;BME280;68533;51.090;17.216;2023-07-20T00:48:42;99567.78;;;15.18;94.48
79136;BME280;68533;51.090;17.216;2023-07-20T00:51:08;99578.31;;;15.03;94.51
79136;BME280;68533;51.090;17.216;2023-07-20T00:53:35;99567.63;;;15.14;94.34
79136;BME280;68533;51.090;17.216;2023-07-20T00:56:00;99545.75;;;15.00;95.49
79136;BME280;68533;51.090;17.216;2023-07-20T00:58:27;99548.72;;;14.95;95.94
79136;BME280;68533;51.090;17.216;2023-07-20T01:00:53;99544.78;;;14.96;97.25
79136;BME280;68533;51.090;17.216;2023-07-20T01:03:20;99538.78;;;14.94;97.51
79136;BME280;68533;51.090;17.216;2023-07-20T01:06:14;99510.59;;;14.92;95.92
79136;BME280;68533;51.090;17.216;2023-07-20T01:13:57;99537.19;;;14.85;97.91
79136;BME280;68533;51.090;17.216;2023-07-20T01:16:23;99549.03;;;14.94;98.55
79136;BME280;68533;51.090;17.216;2023-07-20T01:18:50;99553.97;;;14.88;98.04
79136;BME280;68533;51.090;17.216;2023-07-20T01:21:24;99553.72;;;15.02;97.75
79136;BME280;68533;51.090;17.216;2023-07-20T01:24:12;99561.56;;;14.91;99.58
79136;BME280;68533;51.090;17.216;2023-07-20T01:32:17;99550.06;;;14.89;98.73
79136;BME280;68533;51.090;17.216;2023-07-20T01:34:46;99548.75;;;14.87;99.23
79136;BME280;68533;51.090;17.216;2023-07-20T01:37:13;99532.13;;;14.87;99.07
79136;BME280;68533;51.090;17.216;2023-07-20T01:39:41;99538.81;;;14.86;98.08
79136;BME280;68533;51.090;17.216;2023-07-20T01:42:07;99538.50;;;14.87;97.56
79136;BME280;68533;51.090;17.216;2023-07-20T01:44:33;99533.91;;;14.91;97.30
79136;BME280;68533;51.090;17.216;2023-07-20T01:46:59;99539.53;;;15.03;96.62
79136;BME280;68533;51.090;17.216;2023-07-20T01:49:25;99533.28;;;14.86;97.28
79136;BME280;68533;51.090;17.216;2023-07-20T01:51:51;99531.13;;;14.91;95.89
79136;BME280;68533;51.090;17.216;2023-07-20T01:54:17;99530.19;;;14.87;96.36
79136;BME280;68533;51.090;17.216;2023-07-20T01:56:43;99524.06;;;15.02;93.77
79136;BME280;68533;51.090;17.216;2023-07-20T01:59:09;99524.50;;;14.84;95.30
79136;BME280;68533;51.090;17.216;2023-07-20T02:01:35;99522.75;;;14.79;94.74
79136;BME280;68533;51.090;17.216;2023-07-20T02:04:01;99517.31;;;14.83;94.23
79136;BME280;68533;51.090;17.216;2023-07-20T02:06:27;99519.56;;;14.60;96.51
79136;BME280;68533;51.090;17.216;2023-07-20T02:08:53;99522.41;;;14.43;96.91
79136;BME280;68533;51.090;17.216;2023-07-20T02:11:19;99529.75;;;14.30;97.50
79136;BME280;68533;51.090;17.216;2023-07-20T02:13:45;99529.78;;;14.21;97.95
79136;BME280;68533;51.090;17.216;2023-07-20T02:16:11;99527.03;;;14.13;99.35
79136;BME280;68533;51.090;17.216;2023-07-20T02:18:37;99525.91;;;14.05;100.00
79136;BME280;68533;51.090;17.216;2023-07-20T02:21:03;99526.75;;;13.97;100.00
79136;BME280;68533;51.090;17.216;2023-07-20T02:23:29;99529.31;;;14.02;100.00
79136;BME280;68533;51.090;17.216;2023-07-20T02:25:55;99530.66;;;13.87;100.00
79136;BME280;68533;51.090;17.216;2023-07-20T02:28:22;99525.78;;;13.84;100.00
79136;BME280;68533;51.090;17.216;2023-07-20T02:30:49;99529.69;;;13.83;100.00
79136;BME280;68533;51.090;17.216;2023-07-20T02:33:15;99529.69;;;13.75;100.00
79136;BME280;68533;51.090;17.216;2023-07-20T02:35:41;99528.75;;;13.71;100.00
79136;BME280;68533;51.090;17.216;2023-07-20T02:38:07;99534.91;;;13.59;100.00
79136;BME280;68533;51.090;17.216;2023-07-20T02:40:33;99522.09;;;13.54;100.00
79136;BME280;68533;51.090;17.216;2023-07-20T02:42:59;99532.47;;;13.66;100.00
79136;BME280;68533;51.090;17.216;2023-07-20T02:45:26;99530.69;;;13.62;100.00
79136;BME280;68533;51.090;17.216;2023-07-20T02:47:55;99540.25;;;13.73;100.00
79136;BME280;68533;51.090;17.216;2023-07-20T02:50:21;99534.09;;;13.76;100.00
79136;BME280;68533;51.090;17.216;2023-07-20T02:52:47;99542.88;;;13.78;100.00
79136;BME280;68533;51.090;17.216;2023-07-20T02:55:13;99547.59;;;13.77;100.00
79136;BME280;68533;51.090;17.216;2023-07-20T02:57:41;99543.03;;;13.73;100.00
79136;BME280;68533;51.090;17.216;2023-07-20T03:00:07;99549.22;;;13.70;100.00
79136;BME280;68533;51.090;17.216;2023-07-20T03:02:33;99544.66;;;13.74;100.00
79136;BME280;68533;51.090;17.216;2023-07-20T03:04:59;99544.66;;;13.74;100.00
79136;BME280;68533;51.090;17.216;2023-07-20T03:07:28;99540.25;;;13.73;100.00
79136;BME280;68533;51.090;17.216;2023-07-20T03:09:54;99529.06;;;13.60;100.00
79136;BME280;68533;51.090;17.216;2023-07-20T03:12:21;99532.97;;;13.68;100.00
79136;BME280;68533;51.090;17.216;2023-07-20T03:14:47;99533.78;;;13.69;100.00
79136;BME280;68533;51.090;17.216;2023-07-20T03:17:13;99530.84;;;13.74;100.00
79136;BME280;68533;51.090;17.216;2023-07-20T03:19:39;99528.25;;;13.60;100.00
79136;BME280;68533;51.090;17.216;2023-07-20T03:22:06;99533.59;;;13.65;100.00
79136;BME280;68533;51.090;17.216;2023-07-20T03:24:32;99539.78;;;13.71;100.00
79136;BME280;68533;51.090;17.216;2023-07-20T03:26:58;99540.75;;;13.66;100.00
79136;BME280;68533;51.090;17.216;2023-07-20T03:29:25;99538.00;;;13.57;100.00
79136;BME280;68533;51.090;17.216;2023-07-20T03:31:51;99546.63;;;13.56;100.00
79136;BME280;68533;51.090;17.216;2023-07-20T03:34:17;99544.50;;;13.62;100.00
79136;BME280;68533;51.090;17.216;2023-07-20T03:36:43;99548.38;;;13.52;100.00
79136;BME280;68533;51.090;17.216;2023-07-20T03:39:09;99543.50;;;13.57;100.00
79136;BME280;68533;51.090;17.216;2023-07-20T03:41:35;99549.72;;;13.63;100.00
79136;BME280;68533;51.090;17.216;2023-07-20T03:44:02;99555.22;;;13.63;100.00
79136;BME280;68533;51.090;17.216;2023-07-20T03:46:29;99545.97;;;13.59;100.00
79136;BME280;68533;51.090;17.216;2023-07-20T03:48:55;99550.03;;;13.70;100.00
79136;BME280;68533;51.090;17.216;2023-07-20T03:51:21;99546.13;;;13.63;100.00
79136;BME280;68533;51.090;17.216;2023-07-20T03:53:46;99548.72;;;13.68;100.00
79136;BME280;68533;51.090;17.216;2023-07-20T03:56:13;99549.03;;;13.66;100.00
79136;BME280;68533;51.090;17.216;2023-07-20T03:58:38;99552.94;;;13.74;100.00
79136;BME280;68533;51.090;17.216;2023-07-20T04:01:05;99547.41;;;13.74;100.00
79136;BME280;68533;51.090;17.216;2023-07-20T04:03:33;99552.28;;;13.77;100.00
79136;BME280;68533;51.090;17.216;2023-07-20T04:05:59;99542.38;;;13.84;100.00
79136;BME280;68533;51.090;17.216;2023-07-20T04:08:25;99541.69;;;13.87;100.00
79136;BME280;68533;51.090;17.216;2023-07-20T04:10:51;99537.28;;;14.04;100.00
79136;BME280;68533;51.090;17.216;2023-07-20T04:13:17;99545.56;;;14.12;100.00
79136;BME280;68533;51.090;17.216;2023-07-20T04:15:44;99551.72;;;14.18;100.00
79136;BME280;68533;51.090;17.216;2023-07-20T04:18:10;99539.53;;;14.27;100.00
79136;BME280;68533;51.090;17.216;2023-07-20T04:20:36;99537.25;;;14.29;100.00
79136;BME280;68533;51.090;17.216;2023-07-20T04:23:03;99554.09;;;14.54;99.38
79136;BME280;68533;51.090;17.216;2023-07-20T04:25:30;99551.97;;;14.59;99.87
79136;BME280;68533;51.090;17.216;2023-07-20T04:28:01;99548.84;;;14.61;99.80
79136;BME280;68533;51.090;17.216;2023-07-20T04:30:28;99561.47;;;14.79;98.88
79136;BME280;68533;51.090;17.216;2023-07-20T04:32:54;99556.00;;;15.00;98.15
79136;BME280;68533;51.090;17.216;2023-07-20T04:35:52;99561.13;;;15.19;97.17
79136;BME280;68533;51.090;17.216;2023-07-20T04:38:19;99561.66;;;15.33;97.71
79136;BME280;68533;51.090;17.216;2023-07-20T04:40:48;99567.28;;;15.45;97.82
79136;BME280;68533;51.090;17.216;2023-07-20T04:43:15;99562.00;;;15.31;96.51
79136;BME280;68533;51.090;17.216;2023-07-20T04:45:41;99573.16;;;15.43;97.12
79136;BME280;68533;51.090;17.216;2023-07-20T04:48:09;99569.28;;;15.36;96.53
79136;BME280;68533;51.090;17.216;2023-07-20T04:50:38;99567.34;;;15.36;97.34
79136;BME280;68533;51.090;17.216;2023-07-20T04:53:04;99577.41;;;15.41;97.70
79136;BME280;68533;51.090;17.216;2023-07-20T04:55:30;99574.75;;;15.53;97.97
79136;BME280;68533;51.090;17.216;2023-07-20T04:57:57;99580.59;;;15.51;97.52
79136;BME280;68533;51.090;17.216;2023-07-20T05:00:25;99592.31;;;15.57;97.10
79136;BME280;68533;51.090;17.216;2023-07-20T05:02:51;99592.41;;;15.69;96.41
79136;BME280;68533;51.090;17.216;2023-07-20T05:05:18;99598.22;;;15.76;98.61
79136;BME280;68533;51.090;17.216;2023-07-20T05:07:44;99594.75;;;15.79;98.33
79136;BME280;68533;51.090;17.216;2023-07-20T05:10:11;99600.69;;;15.90;97.46
79136;BME280;68533;51.090;17.216;2023-07-20T05:12:37;99599.56;;;15.91;96.83
79136;BME280;68533;51.090;17.216;2023-07-20T05:15:04;99599.84;;;16.10;96.16
79136;BME280;68533;51.090;17.216;2023-07-20T05:17:30;99598.50;;;16.16;94.70
79136;BME280;68533;51.090;17.216;2023-07-20T05:19:56;99610.00;;;16.27;94.07
79136;BME280;68533;51.090;17.216;2023-07-20T05:22:22;99618.72;;;16.50;94.28
79136;BME280;68533;51.090;17.216;2023-07-20T05:24:50;99616.28;;;16.48;93.25
79136;BME280;68533;51.090;17.216;2023-07-20T05:27:16;99614.31;;;16.49;93.29
79136;BME280;68533;51.090;17.216;2023-07-20T05:29:46;99620.47;;;16.54;92.64
79136;BME280;68533;51.090;17.216;2023-07-20T05:32:12;99631.16;;;16.64;92.98
79136;BME280;68533;51.090;17.216;2023-07-20T05:34:39;99621.97;;;16.52;91.59
79136;BME280;68533;51.090;17.216;2023-07-20T05:37:05;99627.16;;;16.53;92.22
79136;BME280;68533;51.090;17.216;2023-07-20T05:39:34;99629.47;;;16.84;91.03
79136;BME280;68533;51.090;17.216;2023-07-20T05:42:00;99634.34;;;16.87;91.68
79136;BME280;68533;51.090;17.216;2023-07-20T05:44:27;99637.16;;;17.12;90.15
79136;BME280;68533;51.090;17.216;2023-07-20T05:46:53;99641.06;;;16.98;90.35
79136;BME280;68533;51.090;17.216;2023-07-20T05:49:19;99650.19;;;16.99;89.90
79136;BME280;68533;51.090;17.216;2023-07-20T05:51:45;99640.38;;;16.89;90.37
79136;BME280;68533;51.090;17.216;2023-07-20T05:54:12;99631.41;;;16.72;90.38
79136;BME280;68533;51.090;17.216;2023-07-20T05:56:38;99633.00;;;16.60;90.96
79136;BME280;68533;51.090;17.216;2023-07-20T05:59:04;99628.72;;;16.63;91.56
79136;BME280;68533;51.090;17.216;2023-07-20T06:01:30;99634.75;;;16.65;90.32
79136;BME280;68533;51.090;17.216;2023-07-20T06:03:56;99637.53;;;16.65;91.82
79136;BME280;68533;51.090;17.216;2023-07-20T06:06:22;99633.72;;;16.69;90.58
79136;BME280;68533;51.090;17.216;2023-07-20T06:08:48;99624.81;;;16.76;89.74
79136;BME280;68533;51.090;17.216;2023-07-20T06:11:14;99629.78;;;16.71;89.48
79136;BME280;68533;51.090;17.216;2023-07-20T06:13:40;99625.28;;;16.66;90.51
79136;BME280;68533;51.090;17.216;2023-07-20T06:16:06;99635.63;;;16.57;90.53
79136;BME280;68533;51.090;17.216;2023-07-20T06:18:32;99644.28;;;16.55;90.55
79136;BME280;68533;51.090;17.216;2023-07-20T06:20:58;99641.13;;;16.65;90.41
79136;BME280;68533;51.090;17.216;2023-07-20T06:23:24;99645.06;;;16.77;89.67
79136;BME280;68533;51.090;17.216;2023-07-20T06:25:50;99646.22;;;16.76;91.30
79136;BME280;68533;51.090;17.216;2023-07-20T06:28:16;99647.88;;;17.01;89.30
79136;BME280;68533;51.090;17.216;2023-07-20T06:30:44;99663.41;;;17.38;89.92
79136;BME280;68533;51.090;17.216;2023-07-20T06:33:10;99661.75;;;17.98;86.75
79136;BME280;68533;51.090;17.216;2023-07-20T06:35:36;99660.31;;;18.44;81.52
79136;BME280;68533;51.090;17.216;2023-07-20T06:38:02;99653.34;;;18.10;82.76
79136;BME280;68533;51.090;17.216;2023-07-20T06:40:32;99656.75;;;18.04;83.31
79136;BME280;68533;51.090;17.216;2023-07-20T06:42:58;99663.69;;;18.38;82.06
79136;BME280;68533;51.090;17.216;2023-07-20T06:45:24;99663.75;;;18.97;79.47
79136;BME280;68533;51.090;17.216;2023-07-20T06:47:51;99665.53;;;19.05;80.07
79136;BME280;68533;51.090;17.216;2023-07-20T06:50:17;99662.63;;;18.70;80.95
79136;BME280;68533;51.090;17.216;2023-07-20T06:52:43;99670.94;;;18.98;80.18
79136;BME280;68533;51.090;17.216;2023-07-20T06:55:09;99674.44;;;18.79;79.70
79136;BME280;68533;51.090;17.216;2023-07-20T06:57:35;99670.03;;;18.78;80.73
79136;BME280;68533;51.090;17.216;2023-07-20T07:00:01;99674.88;;;18.26;77.89
79136;BME280;68533;51.090;17.216;2023-07-20T07:02:30;99680.28;;;18.90;78.29
79136;BME280;68533;51.090;17.216;2023-07-20T07:04:56;99676.34;;;19.69;75.67
79136;BME280;68533;51.090;17.216;2023-07-20T07:07:22;99674.19;;;20.17;75.23
79136;BME280;68533;51.090;17.216;2023-07-20T07:09:48;99681.59;;;21.28;70.50
79136;BME280;68533;51.090;17.216;2023-07-20T07:12:14;99673.38;;;20.16;71.86
79136;BME280;68533;51.090;17.216;2023-07-20T07:14:40;99672.94;;;19.60;73.83
79136;BME280;68533;51.090;17.216;2023-07-20T07:17:06;99673.56;;;20.62;69.19
79136;BME280;68533;51.090;17.216;2023-07-20T07:19:32;99672.34;;;21.47;67.31
79136;BME280;68533;51.090;17.216;2023-07-20T07:21:58;99675.16;;;21.24;65.86
79136;BME280;68533;51.090;17.216;2023-07-20T07:24:24;99678.03;;;21.54;67.30
79136;BME280;68533;51.090;17.216;2023-07-20T07:26:50;99683.22;;;20.10;69.94
79136;BME280;68533;51.090;17.216;2023-07-20T07:29:16;99687.56;;;20.85;67.42
79136;BME280;68533;51.090;17.216;2023-07-20T07:31:42;99681.81;;;21.92;65.05
79136;BME280;68533;51.090;17.216;2023-07-20T07:34:08;99679.94;;;22.63;64.17
79136;BME280;68533;51.090;17.216;2023-07-20T07:36:34;99682.66;;;23.30;60.25
79136;BME280;68533;51.090;17.216;2023-07-20T07:39:00;99675.06;;;22.23;63.02
79136;BME280;68533;51.090;17.216;2023-07-20T07:41:26;99681.09;;;22.58;61.19
79136;BME280;68533;51.090;17.216;2023-07-20T07:43:52;99686.41;;;22.33;62.18
79136;BME280;68533;51.090;17.216;2023-07-20T07:46:19;99677.94;;;20.82;66.12
79136;BME280;68533;51.090;17.216;2023-07-20T07:48:44;99675.19;;;21.28;63.98
79136;BME280;68533;51.090;17.216;2023-07-20T07:51:11;99679.69;;;19.94;65.80
79136;BME280;68533;51.090;17.216;2023-07-20T07:53:37;99681.09;;;20.04;67.56
79136;BME280;68533;51.090;17.216;2023-07-20T07:56:06;99677.00;;;20.17;70.02
79136;BME280;68533;51.090;17.216;2023-07-20T07:58:32;99677.13;;;19.86;70.98
79136;BME280;68533;51.090;17.216;2023-07-20T08:00:58;99682.97;;;19.65;70.73
79136;BME280;68533;51.090;17.216;2023-07-20T08:03:24;99682.66;;;19.51;71.87
79136;BME280;68533;51.090;17.216;2023-07-20T08:05:55;99689.31;;;19.62;71.59
79136;BME280;68533;51.090;17.216;2023-07-20T08:08:22;99685.34;;;19.63;71.19
79136;BME280;68533;51.090;17.216;2023-07-20T08:10:48;99684.34;;;20.06;69.97
79136;BME280;68533;51.090;17.216;2023-07-20T08:13:14;99696.97;;;20.96;66.01
79136;BME280;68533;51.090;17.216;2023-07-20T08:15:48;99696.59;;;20.75;68.50
79136;BME280;68533;51.090;17.216;2023-07-20T08:18:14;99693.69;;;20.33;67.36
79136;BME280;68533;51.090;17.216;2023-07-20T08:20:44;99692.56;;;19.99;66.47
79136;BME280;68533;51.090;17.216;2023-07-20T08:23:09;99691.63;;;19.60;69.31
79136;BME280;68533;51.090;17.216;2023-07-20T08:25:41;99703.69;;;19.17;69.95
79136;BME280;68533;51.090;17.216;2023-07-20T08:28:14;99700.31;;;21.05;65.17
79136;BME280;68533;51.090;17.216;2023-07-20T08:30:45;99708.44;;;22.68;62.12
79136;BME280;68533;51.090;17.216;2023-07-20T08:33:17;99700.47;;;23.07;58.63
79136;BME280;68533;51.090;17.216;2023-07-20T08:35:47;99709.41;;;23.60;56.56
79136;BME280;68533;51.090;17.216;2023-07-20T08:38:14;99696.13;;;23.13;55.69
79136;BME280;68533;51.090;17.216;2023-07-20T08:40:42;99696.38;;;23.38;57.87
79136;BME280;68533;51.090;17.216;2023-07-20T08:43:10;99697.78;;;25.18;55.32
79136;BME280;68533;51.090;17.216;2023-07-20T08:45:39;99696.56;;;25.04;55.59
79136;BME280;68533;51.090;17.216;2023-07-20T08:48:06;99698.03;;;24.70;53.85
79136;BME280;68533;51.090;17.216;2023-07-20T08:50:34;99689.84;;;24.33;52.02
79136;BME280;68533;51.090;17.216;2023-07-20T08:53:01;99702.94;;;22.75;54.66
79136;BME280;68533;51.090;17.216;2023-07-20T08:55:28;99690.19;;;21.65;57.65
79136;BME280;68533;51.090;17.216;2023-07-20T08:57:56;99696.59;;;20.75;60.94
79136;BME280;68533;51.090;17.216;2023-07-20T09:00:24;99692.44;;;20.69;60.76
79136;BME280;68533;51.090;17.216;2023-07-20T09:02:52;99700.94;;;20.18;63.80
79136;BME280;68533;51.090;17.216;2023-07-20T09:05:19;99701.44;;;20.04;65.22
79136;BME280;68533;51.090;17.216;2023-07-20T09:07:46;99706.72;;;19.90;65.40
79136;BME280;68533;51.090;17.216;2023-07-20T09:10:12;99703.22;;;20.12;65.07
79136;BME280;68533;51.090;17.216;2023-07-20T09:12:40;99693.78;;;20.56;62.12
79136;BME280;68533;51.090;17.216;2023-07-20T09:15:07;99697.19;;;21.79;60.22
79136;BME280;68533;51.090;17.216;2023-07-20T09:17:36;99694.47;;;23.49;54.61
79136;BME280;68533;51.090;17.216;2023-07-20T09:20:08;99701.03;;;25.48;51.46
79136;BME280;68533;51.090;17.216;2023-07-20T09:22:37;99701.81;;;25.73;47.50
79136;BME280;68533;51.090;17.216;2023-07-20T09:25:17;99699.66;;;24.02;48.10
79136;BME280;68533;51.090;17.216;2023-07-20T09:27:45;99702.88;;;22.72;53.53
79136;BME280;68533;51.090;17.216;2023-07-20T09:30:13;99701.84;;;21.45;63.21
79136;BME280;68533;51.090;17.216;2023-07-20T09:32:44;99701.28;;;20.51;66.55
79136;BME280;68533;51.090;17.216;2023-07-20T09:35:14;99706.66;;;20.06;68.32
79136;BME280;68533;51.090;17.216;2023-07-20T09:37:46;99699.81;;;19.37;71.67
79136;BME280;68533;51.090;17.216;2023-07-20T09:40:15;99691.00;;;19.04;70.75
79136;BME280;68533;51.090;17.216;2023-07-20T09:42:43;99702.41;;;19.14;70.87
79136;BME280;68533;51.090;17.216;2023-07-20T09:45:09;99697.19;;;19.44;70.65
79136;BME280;68533;51.090;17.216;2023-07-20T09:47:39;99700.00;;;20.87;64.97
79136;BME280;68533;51.090;17.216;2023-07-20T09:50:07;99700.94;;;22.13;63.41
79136;BME280;68533;51.090;17.216;2023-07-20T09:52:40;99705.59;;;23.42;59.78
79136;BME280;68533;51.090;17.216;2023-07-20T09:55:10;99698.75;;;23.84;54.19
79136;BME280;68533;51.090;17.216;2023-07-20T09:57:37;99695.22;;;23.94;54.02
79136;BME280;68533;51.090;17.216;2023-07-20T10:00:06;99690.34;;;24.53;51.28
79136;BME280;68533;51.090;17.216;2023-07-20T10:02:43;99692.50;;;24.98;48.84
79136;BME280;68533;51.090;17.216;2023-07-20T10:05:14;99686.91;;;25.09;49.36
79136;BME280;68533;51.090;17.216;2023-07-20T10:07:50;99697.31;;;26.18;49.83
79136;BME280;68533;51.090;17.216;2023-07-20T10:10:19;99687.69;;;24.99;47.02
79136;BME280;68533;51.090;17.216;2023-07-20T10:12:47;99684.78;;;24.70;49.01
79136;BME280;68533;51.090;17.216;2023-07-20T10:15:24;99685.38;;;24.25;49.24
79136;BME280;68533;51.090;17.216;2023-07-20T10:20:30;99680.59;;;23.67;48.65
79136;BME280;68533;51.090;17.216;2023-07-20T10:22:58;99672.72;;;24.70;48.45
79136;BME280;68533;51.090;17.216;2023-07-20T10:25:25;99681.22;;;26.30;46.26
79136;BME280;68533;51.090;17.216;2023-07-20T10:27:51;99667.97;;;26.02;41.80
79136;BME280;68533;51.090;17.216;2023-07-20T10:30:18;99671.50;;;26.41;41.76
79136;BME280;68533;51.090;17.216;2023-07-20T10:32:45;99669.59;;;27.04;41.23
79136;BME280;68533;51.090;17.216;2023-07-20T10:35:13;99668.75;;;27.07;40.19
79136;BME280;68533;51.090;17.216;2023-07-20T10:38:00;99675.66;;;26.99;42.30
79136;BME280;68533;51.090;17.216;2023-07-20T10:41:11;99673.66;;;25.24;43.71
79136;BME280;68533;51.090;17.216;2023-07-20T10:43:19;99668.53;;;27.35;39.34
79136;BME280;68533;51.090;17.216;2023-07-20T10:45:50;99668.06;;;25.59;42.00
79136;BME280;68533;51.090;17.216;2023-07-20T10:48:21;99671.59;;;26.02;43.16
79136;BME280;68533;51.090;17.216;2023-07-20T10:53:36;99663.78;;;26.59;42.35
79136;BME280;68533;51.090;17.216;2023-07-20T10:56:21;99657.16;;;25.82;40.87
79136;BME280;68533;51.090;17.216;2023-07-20T10:58:48;99652.28;;;26.08;41.14
79136;BME280;68533;51.090;17.216;2023-07-20T11:01:16;99648.63;;;26.11;39.73
79136;BME280;68533;51.090;17.216;2023-07-20T11:03:43;99641.50;;;26.76;40.18
79136;BME280;68533;51.090;17.216;2023-07-20T11:09:13;99646.94;;;27.15;39.27
79136;BME280;68533;51.090;17.216;2023-07-20T11:11:47;99641.84;;;27.88;38.33
79136;BME280;68533;51.090;17.216;2023-07-20T11:14:26;99642.75;;;27.81;39.34
79136;BME280;68533;51.090;17.216;2023-07-20T11:16:53;99644.09;;;28.04;37.22
79136;BME280;68533;51.090;17.216;2023-07-20T11:19:23;99632.59;;;26.84;37.79
79136;BME280;68533;51.090;17.216;2023-07-20T11:21:54;99643.28;;;27.66;39.41
79136;BME280;68533;51.090;17.216;2023-07-20T11:24:21;99646.34;;;27.37;35.54
79136;BME280;68533;51.090;17.216;2023-07-20T11:26:49;99646.44;;;26.64;36.28
79136;BME280;68533;51.090;17.216;2023-07-20T11:29:17;99639.31;;;27.08;38.99
79136;BME280;68533;51.090;17.216;2023-07-20T11:31:44;99641.09;;;27.39;37.15
79136;BME280;68533;51.090;17.216;2023-07-20T11:34:12;99630.91;;;27.56;38.22
79136;BME280;68533;51.090;17.216;2023-07-20T11:36:51;99633.66;;;27.12;37.95
79136;BME280;68533;51.090;17.216;2023-07-20T11:39:18;99635.47;;;24.94;40.14
79136;BME280;68533;51.090;17.216;2023-07-20T11:41:50;99635.78;;;24.75;40.87
79136;BME280;68533;51.090;17.216;2023-07-20T11:44:21;99651.81;;;23.81;45.35
79136;BME280;68533;51.090;17.216;2023-07-20T11:49:30;99659.81;;;20.73;62.19
79136;BME280;68533;51.090;17.216;2023-07-20T11:52:00;99664.38;;;19.69;65.40
79136;BME280;68533;51.090;17.216;2023-07-20T11:54:27;99676.00;;;19.39;65.58
79136;BME280;68533;51.090;17.216;2023-07-20T11:56:54;99671.22;;;19.09;62.62
79136;BME280;68533;51.090;17.216;2023-07-20T11:59:21;99678.06;;;18.95;64.26
79136;BME280;68533;51.090;17.216;2023-07-20T12:01:47;99689.91;;;19.08;64.10
79136;BME280;68533;51.090;17.216;2023-07-20T12:04:13;99692.97;;;19.03;65.94
79136;BME280;68533;51.090;17.216;2023-07-20T12:06:39;99698.84;;;18.70;68.54
79136;BME280;68533;51.090;17.216;2023-07-20T12:09:05;99709.44;;;18.65;71.13
79136;BME280;68533;51.090;17.216;2023-07-20T12:11:36;99709.16;;;18.70;72.15
79136;BME280;68533;51.090;17.216;2023-07-20T12:14:04;99706.66;;;18.65;72.89
79136;BME280;68533;51.090;17.216;2023-07-20T12:16:33;99709.47;;;18.80;71.96
79136;BME280;68533;51.090;17.216;2023-07-20T12:19:00;99703.13;;;18.95;73.15
79136;BME280;68533;51.090;17.216;2023-07-20T12:21:26;99706.81;;;18.99;72.37
79136;BME280;68533;51.090;17.216;2023-07-20T12:23:53;99719.13;;;19.14;70.67
79136;BME280;68533;51.090;17.216;2023-07-20T12:26:20;99713.03;;;19.24;69.87
79136;BME280;68533;51.090;17.216;2023-07-20T12:28:47;99707.09;;;19.57;70.20
79136;BME280;68533;51.090;17.216;2023-07-20T12:31:15;99701.84;;;19.87;69.41
79136;BME280;68533;51.090;17.216;2023-07-20T12:33:41;99710.16;;;19.84;67.20
79136;BME280;68533;51.090;17.216;2023-07-20T12:36:09;99693.59;;;20.45;65.42
79136;BME280;68533;51.090;17.216;2023-07-20T12:38:35;99693.53;;;21.48;62.04
79136;BME280;68533;51.090;17.216;2023-07-20T12:41:02;99689.13;;;22.60;58.33
79136;BME280;68533;51.090;17.216;2023-07-20T12:43:28;99691.25;;;22.36;58.38
79136;BME280;68533;51.090;17.216;2023-07-20T12:45:55;99686.31;;;22.26;57.32
79136;BME280;68533;51.090;17.216;2023-07-20T12:48:21;99686.63;;;21.95;54.62
79136;BME280;68533;51.090;17.216;2023-07-20T12:50:48;99675.84;;;21.67;55.56
79136;BME280;68533;51.090;17.216;2023-07-20T12:53:14;99685.00;;;22.80;54.21
79136;BME280;68533;51.090;17.216;2023-07-20T12:55:42;99675.03;;;24.43;50.27
79136;BME280;68533;51.090;17.216;2023-07-20T12:58:08;99684.03;;;26.33;47.27
79136;BME280;68533;51.090;17.216;2023-07-20T13:00:35;99690.81;;;26.46;46.16
79136;BME280;68533;51.090;17.216;2023-07-20T13:03:01;99686.19;;;24.22;47.38
79136;BME280;68533;51.090;17.216;2023-07-20T13:05:31;99687.16;;;23.89;46.79
79136;BME280;68533;51.090;17.216;2023-07-20T13:08:00;99696.31;;;24.41;47.71
79136;BME280;68533;51.090;17.216;2023-07-20T13:10:27;99690.41;;;24.77;45.36
79136;BME280;68533;51.090;17.216;2023-07-20T13:12:53;99692.59;;;23.64;48.02